Time;durP1;ratioP1;P1;durP2;ratioP2;P2;SDS_P1;SDS_P2;PMS_P1;PMS_P2;Temp;Humidity;BMP_temperature;BMP_pressure;BME280_temperature;BME280_humidity;BME280_pressure;Samples;Min_cycle;Max_cycle;Signal;HPM_P1;HPM_P2
2021/09/13 00:03:53;;;;;;;5.95;5.43;;;16.70;99.90;;;;;;5055175;28;20041;-84
2021/09/13 00:07:00;;;;;;;5.90;5.40;;;16.60;99.90;;;;;;5055052;28;20027;-83
2021/09/13 00:12:48;;;;;;;5.35;4.93;;;16.70;99.90;;;;;;5056336;28;20103;-84
2021/09/13 00:43:01;;;;;;;5.73;5.23;;;16.70;99.90;;;;;;4845243;29;20285;-84
2021/09/13 00:45:32;;;;;;;5.28;4.78;;;16.70;99.90;;;;;;4843244;29;20038;-83
2021/09/13 00:48:53;;;;;;;5.90;5.40;;;16.70;99.90;;;;;;4837600;29;20026;-82
2021/09/13 00:56:30;;;;;;;5.18;4.68;;;16.80;99.90;;;;;;4824449;29;20109;-84
2021/09/13 01:22:57;;;;;;;5.30;4.82;;;16.70;99.90;;;;;;4807315;29;20138;-83
2021/09/13 01:29:35;;;;;;;5.43;4.93;;;16.70;99.90;;;;;;4859363;29;20185;-83
2021/09/13 01:36:24;;;;;;;8.77;7.90;;;16.60;99.90;;;;;;4915230;29;20093;-83
2021/09/13 01:39:41;;;;;;;9.20;7.13;;;16.50;99.90;;;;;;4921449;28;20046;-83
2021/09/13 01:42:07;;;;;;;8.25;7.25;;;16.40;99.90;;;;;;4987397;28;20028;-83
2021/09/13 01:44:32;;;;;;;7.40;6.70;;;16.30;99.90;;;;;;5053885;28;20037;-83
2021/09/13 01:46:59;;;;;;;6.45;5.88;;;16.30;99.90;;;;;;5054258;28;20053;-83
2021/09/13 01:49:24;;;;;;;7.18;6.10;;;16.20;99.90;;;;;;5041181;28;20030;-83
2021/09/13 01:51:50;;;;;;;6.05;5.55;;;16.20;99.90;;;;;;5017591;28;20083;-83
2021/09/13 01:54:16;;;;;;;6.47;5.88;;;16.10;99.90;;;;;;5035284;28;20092;-83
2021/09/13 01:56:41;;;;;;;6.50;5.90;;;16.10;99.90;;;;;;5017131;28;20044;-84
2021/09/13 01:59:07;;;;;;;5.85;4.93;;;16.10;99.90;;;;;;5017621;28;20107;-83
2021/09/13 02:01:33;;;;;;;5.93;5.38;;;16.10;99.90;;;;;;5035836;28;20026;-83
2021/09/13 02:04:56;;;;;;;6.05;5.53;;;16.10;99.90;;;;;;5035172;28;20017;-84
2021/09/13 02:18:38;;;;;;;5.68;5.18;;;15.90;99.90;;;;;;4925519;29;20043;-84
2021/09/13 02:25:30;;;;;;;5.53;5.03;;;15.80;99.90;;;;;;4900420;29;20134;-82
2021/09/13 02:35:53;;;;;;;6.55;5.85;;;15.70;99.90;;;;;;4887220;29;20075;-84
2021/09/13 02:45:56;;;;;;;5.68;5.18;;;15.70;99.90;;;;;;4894382;29;20103;-83
2021/09/13 02:49:11;;;;;;;5.25;4.78;;;15.60;99.90;;;;;;4892894;29;20048;-83
2021/09/13 02:59:35;;;;;;;5.45;4.95;;;15.50;99.90;;;;;;4881004;29;20058;-82
2021/09/13 03:02:55;;;;;;;5.90;5.40;;;15.60;99.90;;;;;;4909637;29;20059;-84
2021/09/13 03:05:20;;;;;;;5.30;4.90;;;15.50;99.90;;;;;;4956172;28;20503;-84
2021/09/13 03:07:46;;;;;;;4.88;4.47;;;15.50;99.90;;;;;;5016211;28;20049;-84
2021/09/13 03:10:13;;;;;;;6.30;5.70;;;15.40;99.90;;;;;;5036826;28;20056;-84
2021/09/13 03:12:39;;;;;;;6.03;5.50;;;15.40;99.90;;;;;;5050100;28;20108;-84
2021/09/13 03:22:31;;;;;;;6.22;5.63;;;15.40;99.90;;;;;;4957149;29;20026;-84
2021/09/13 03:29:33;;;;;;;6.20;5.22;;;15.30;99.90;;;;;;4880756;29;20032;-83
2021/09/13 03:42:25;;;;;;;6.43;5.78;;;15.40;99.90;;;;;;4938484;29;20568;-84
2021/09/13 03:45:41;;;;;;;7.07;5.75;;;15.30;99.90;;;;;;4925028;29;20134;-84
2021/09/13 03:48:08;;;;;;;6.47;5.65;;;15.40;99.90;;;;;;4959375;28;20369;-84
2021/09/13 03:50:33;;;;;;;5.82;5.30;;;15.40;99.90;;;;;;5040550;28;20036;-85
2021/09/13 03:52:59;;;;;;;6.05;5.10;;;15.30;99.90;;;;;;5057849;28;20017;-85
2021/09/13 03:55:25;;;;;;;6.63;5.43;;;15.40;99.90;;;;;;5031376;28;20041;-85
2021/09/13 03:57:51;;;;;;;5.50;5.00;;;15.40;99.90;;;;;;5020291;28;20025;-82
2021/09/13 04:00:17;;;;;;;8.70;5.88;;;15.40;99.90;;;;;;5036751;28;20515;-82
2021/09/13 04:02:47;;;;;;;5.80;5.20;;;15.40;99.90;;;;;;5018925;28;20036;-82
2021/09/13 04:05:18;;;;;;;6.75;5.30;;;15.40;99.90;;;;;;5056621;28;20044;-82
2021/09/13 04:10:32;;;;;;;7.00;6.30;;;15.30;99.90;;;;;;5057723;28;20049;-82
2021/09/13 04:12:58;;;;;;;6.22;5.63;;;15.30;99.90;;;;;;5058083;28;20064;-82
2021/09/13 04:15:24;;;;;;;6.78;6.18;;;15.30;99.90;;;;;;5057656;28;20033;-83
2021/09/13 04:17:50;;;;;;;6.68;6.00;;;15.30;99.90;;;;;;5057599;28;20496;-82
2021/09/13 04:20:15;;;;;;;6.82;6.20;;;15.30;99.90;;;;;;5057909;28;20013;-83
2021/09/13 04:22:41;;;;;;;6.53;5.93;;;15.20;99.90;;;;;;5057263;28;20056;-82
2021/09/13 04:25:07;;;;;;;7.22;6.53;;;15.20;99.90;;;;;;5057464;28;20381;-83
2021/09/13 04:27:33;;;;;;;6.32;5.72;;;15.20;99.90;;;;;;5058018;28;20158;-83
2021/09/13 04:29:59;;;;;;;7.18;6.20;;;15.20;99.90;;;;;;5057726;28;20488;-83
2021/09/13 04:32:25;;;;;;;6.47;5.88;;;15.20;99.90;;;;;;5071863;28;20164;-84
2021/09/13 04:34:50;;;;;;;5.55;5.05;;;15.20;99.90;;;;;;5074861;28;20040;-83
2021/09/13 04:37:16;;;;;;;5.97;5.40;;;15.30;99.90;;;;;;5049614;28;20136;-85
2021/09/13 04:39:42;;;;;;;6.25;5.65;;;15.30;99.90;;;;;;5058611;28;20078;-84
2021/09/13 04:42:08;;;;;;;7.32;6.20;;;15.40;99.90;;;;;;5059832;28;20113;-84
2021/09/13 04:44:34;;;;;;;6.53;5.93;;;15.40;99.90;;;;;;5059737;28;20057;-84
2021/09/13 04:50:32;;;;;;;6.50;5.90;;;15.50;99.90;;;;;;5033354;28;20105;-85
2021/09/13 04:52:58;;;;;;;6.05;5.45;;;15.60;99.90;;;;;;5031445;28;20054;-83
2021/09/13 04:55:23;;;;;;;5.47;4.97;;;15.50;99.90;;;;;;5049097;28;20053;-82
2021/09/13 04:57:49;;;;;;;5.97;5.47;;;15.50;99.90;;;;;;5055641;28;20022;-83
2021/09/13 05:00:16;;;;;;;6.45;5.85;;;15.50;99.90;;;;;;5073255;28;20096;-83
2021/09/13 05:02:42;;;;;;;6.40;5.65;;;15.50;99.90;;;;;;5048129;28;20047;-83
2021/09/13 05:05:08;;;;;;;6.20;5.63;;;15.50;99.90;;;;;;5075411;28;20029;-82
2021/09/13 05:07:33;;;;;;;8.75;7.25;;;15.50;99.90;;;;;;5070240;28;20029;-82
2021/09/13 05:09:59;;;;;;;8.40;7.43;;;15.50;99.90;;;;;;5072091;28;20025;-81
2021/09/13 05:12:25;;;;;;;8.35;7.47;;;15.40;99.90;;;;;;5072892;28;20025;-83
2021/09/13 05:14:50;;;;;;;7.90;7.03;;;15.40;99.90;;;;;;5072661;28;20029;-83
2021/09/13 05:17:16;;;;;;;6.80;6.20;;;15.40;99.90;;;;;;5034151;23;20130;-84
2021/09/13 05:19:42;;;;;;;7.20;6.50;;;15.50;99.90;;;;;;5011013;28;20035;-84
2021/09/13 05:22:07;;;;;;;6.90;6.20;;;15.50;99.90;;;;;;5028672;28;20033;-84
2021/09/13 05:24:33;;;;;;;6.82;6.15;;;15.50;99.90;;;;;;4986046;28;20093;-84
2021/09/13 05:26:59;;;;;;;9.65;6.60;;;15.50;99.90;;;;;;4992644;28;20022;-85
2021/09/13 05:29:24;;;;;;;6.78;6.05;;;15.60;99.90;;;;;;4995769;28;20089;-85
2021/09/13 05:31:50;;;;;;;5.75;5.22;;;15.60;99.90;;;;;;4994930;28;20471;-85
2021/09/13 05:34:16;;;;;;;6.45;5.85;;;15.70;99.90;;;;;;4979672;28;20451;-84
2021/09/13 05:36:42;;;;;;;5.57;5.07;;;15.70;99.90;;;;;;4995709;28;20483;-85
2021/09/13 05:39:08;;;;;;;5.50;5.00;;;15.80;99.90;;;;;;4987162;28;20006;-83
2021/09/13 05:41:33;;;;;;;5.15;4.65;;;16.00;99.90;;;;;;4999437;28;20443;-85
2021/09/13 05:43:59;;;;;;;4.50;3.97;;;16.10;99.90;;;;;;5010668;28;20078;-86
2021/09/13 05:46:25;;;;;;;5.28;4.78;;;16.20;99.90;;;;;;5011174;28;20027;-86
2021/09/13 05:48:50;;;;;;;5.28;4.78;;;16.30;99.90;;;;;;4997436;28;20027;-84
2021/09/13 05:51:16;;;;;;;5.68;4.60;;;16.40;99.90;;;;;;4993120;28;20034;-84
2021/09/13 05:53:42;;;;;;;5.30;4.82;;;16.40;99.90;;;;;;4984470;28;20034;-85
2021/09/13 05:56:07;;;;;;;5.53;4.97;;;16.50;99.90;;;;;;4986936;28;20074;-86
2021/09/13 05:58:34;;;;;;;5.20;4.55;;;16.70;99.90;;;;;;5010484;28;20090;-88
2021/09/13 06:01:00;;;;;;;4.70;4.30;;;16.80;99.90;;;;;;5010456;28;20026;-85
2021/09/13 06:03:26;;;;;;;4.15;3.85;;;16.80;99.90;;;;;;5004324;28;20036;-86
2021/09/13 06:05:51;;;;;;;4.28;3.88;;;16.90;99.90;;;;;;4997020;28;20419;-86
2021/09/13 06:08:17;;;;;;;4.15;3.85;;;17.00;99.90;;;;;;5006552;28;20048;-85
2021/09/13 06:10:42;;;;;;;4.00;3.70;;;17.10;99.90;;;;;;5006144;28;20026;-85
2021/09/13 06:13:11;;;;;;;7.13;5.85;;;17.20;99.90;;;;;;5007530;28;20046;-85
2021/09/13 06:15:40;;;;;;;5.78;5.05;;;17.30;99.90;;;;;;5007379;28;20090;-85
2021/09/13 06:18:06;;;;;;;7.38;5.53;;;17.30;99.90;;;;;;5001816;28;20038;-85
2021/09/13 06:20:33;;;;;;;6.57;5.97;;;17.40;99.90;;;;;;4996794;28;20084;-84
2021/09/13 06:22:59;;;;;;;5.60;5.10;;;17.50;99.90;;;;;;5006350;28;20022;-84
2021/09/13 06:25:25;;;;;;;5.10;4.60;;;17.60;99.90;;;;;;5004662;28;20093;-84
2021/09/13 06:27:51;;;;;;;4.97;4.57;;;17.60;99.90;;;;;;5004151;28;20049;-84
2021/09/13 06:30:17;;;;;;;7.10;4.60;;;17.70;99.90;;;;;;5002175;28;20026;-85
2021/09/13 06:32:42;;;;;;;4.88;4.47;;;17.80;99.90;;;;;;4992352;28;20070;-85
2021/09/13 06:35:09;;;;;;;4.55;4.15;;;17.90;99.90;;;;;;4991746;28;20054;-85
2021/09/13 06:37:34;;;;;;;4.45;4.05;;;18.00;99.90;;;;;;4990899;28;20014;-85
2021/09/13 06:40:00;;;;;;;4.80;4.40;;;18.10;99.90;;;;;;5002773;28;20410;-85
2021/09/13 06:42:27;;;;;;;4.68;4.28;;;18.10;99.90;;;;;;5006398;28;20061;-85
2021/09/13 06:44:55;;;;;;;4.22;3.83;;;18.20;99.50;;;;;;5003156;28;20026;-84
2021/09/13 06:48:06;;;;;;;3.50;3.20;;;18.30;99.00;;;;;;5005798;28;20618;-85
2021/09/13 06:50:07;;;;;;;3.63;3.33;;;18.40;98.60;;;;;;4993746;28;20035;-84
2021/09/13 06:52:33;;;;;;;5.10;4.60;;;18.50;98.00;;;;;;5001187;28;20030;-85
2021/09/13 06:54:59;;;;;;;3.72;3.40;;;18.60;97.50;;;;;;5000758;28;20023;-85
2021/09/13 06:57:24;;;;;;;3.42;3.13;;;18.70;97.30;;;;;;5005335;28;20022;-84
2021/09/13 06:59:50;;;;;;;4.53;4.13;;;18.90;96.90;;;;;;5005308;28;20037;-84
2021/09/13 07:02:16;;;;;;;3.60;3.30;;;18.90;96.40;;;;;;4995771;28;20050;-90
2021/09/13 07:04:41;;;;;;;3.17;2.88;;;19.00;96.10;;;;;;4993765;28;20023;-84
2021/09/13 07:07:07;;;;;;;3.35;3.08;;;19.00;95.60;;;;;;4983547;28;20022;-86
2021/09/13 07:09:33;;;;;;;3.38;3.08;;;19.10;95.40;;;;;;4984294;28;20065;-86
2021/09/13 07:11:59;;;;;;;3.40;3.13;;;19.10;95.10;;;;;;4999460;28;20033;-85
2021/09/13 07:14:24;;;;;;;6.03;5.25;;;19.10;94.90;;;;;;4998839;28;20176;-85
2021/09/13 07:16:50;;;;;;;7.13;4.97;;;19.20;94.40;;;;;;4998956;28;20557;-86
2021/09/13 07:19:16;;;;;;;5.10;4.57;;;19.30;94.10;;;;;;4988502;28;20023;-87
2021/09/13 07:21:41;;;;;;;5.82;5.22;;;19.30;94.10;;;;;;4997440;28;20022;-85
2021/09/13 07:24:07;;;;;;;3.88;3.50;;;19.30;93.90;;;;;;5016868;28;20026;-86
2021/09/13 07:26:33;;;;;;;4.38;3.97;;;19.30;93.90;;;;;;5011877;28;20099;-85
2021/09/13 07:28:58;;;;;;;4.78;4.38;;;19.40;93.80;;;;;;5000648;28;20031;-85
2021/09/13 07:31:24;;;;;;;5.88;5.25;;;19.50;93.70;;;;;;5001793;28;20030;-86
2021/09/13 07:33:50;;;;;;;5.50;4.93;;;19.40;94.00;;;;;;4992058;28;20464;-84
2021/09/13 07:36:15;;;;;;;5.68;5.03;;;19.40;94.40;;;;;;4982854;28;20065;-85
2021/09/13 07:38:41;;;;;;;5.00;4.47;;;19.50;94.30;;;;;;4999773;28;20030;-85
2021/09/13 07:41:07;;;;;;;7.20;5.05;;;19.70;93.90;;;;;;5004843;28;20468;-84
2021/09/13 07:43:33;;;;;;;5.35;4.50;;;19.80;93.60;;;;;;5003176;28;20112;-86
2021/09/13 07:45:59;;;;;;;10.18;6.13;;;20.00;93.30;;;;;;5000275;28;20019;-86
2021/09/13 07:48:25;;;;;;;6.50;5.90;;;20.00;92.60;;;;;;5000346;28;20038;-85
2021/09/13 07:50:51;;;;;;;7.78;5.85;;;20.00;92.60;;;;;;5000088;28;20042;-85
2021/09/13 07:53:17;;;;;;;4.75;4.35;;;20.10;92.50;;;;;;4999718;28;20026;-85
2021/09/13 07:55:42;;;;;;;7.55;5.25;;;20.30;92.40;;;;;;4998793;28;20029;-86
2021/09/13 07:58:08;;;;;;;9.15;5.88;;;20.50;92.10;;;;;;4998548;28;20036;-86
2021/09/13 08:01:18;;;;;;;7.72;5.32;;;20.60;91.10;;;;;;4999512;28;20022;-86
2021/09/13 08:03:43;;;;;;;4.53;3.90;;;20.80;90.30;;;;;;4988688;28;20033;-86
2021/09/13 08:06:09;;;;;;;5.60;4.72;;;20.90;89.80;;;;;;4997966;28;20062;-84
2021/09/13 08:08:35;;;;;;;6.57;4.68;;;21.00;88.10;;;;;;4989577;28;20026;-85
2021/09/13 08:11:02;;;;;;;6.53;4.95;;;21.20;87.20;;;;;;4980539;28;20111;-85
2021/09/13 08:13:28;;;;;;;5.72;5.00;;;21.40;86.00;;;;;;4992907;28;20030;-85
2021/09/13 08:15:54;;;;;;;6.03;4.32;;;21.60;84.40;;;;;;4995717;28;20026;-85
2021/09/13 08:18:20;;;;;;;5.00;4.38;;;21.90;83.80;;;;;;4994282;28;20391;-85
2021/09/13 08:20:48;;;;;;;4.45;3.97;;;22.30;80.70;;;;;;4979049;28;20102;-84
2021/09/13 08:23:14;;;;;;;5.72;3.53;;;22.50;79.70;;;;;;4990119;28;20027;-85
2021/09/13 08:25:39;;;;;;;3.30;2.92;;;23.00;78.40;;;;;;4998260;28;20479;-84
2021/09/13 08:28:05;;;;;;;3.53;3.20;;;23.40;76.00;;;;;;4993835;28;20022;-86
2021/09/13 08:30:31;;;;;;;4.18;3.78;;;23.60;74.10;;;;;;4990067;28;20026;-86
2021/09/13 08:32:58;;;;;;;3.50;3.20;;;23.70;72.60;;;;;;5002394;28;20027;-85
2021/09/13 08:35:24;;;;;;;3.70;3.40;;;23.70;72.10;;;;;;4987976;28;20019;-84
2021/09/13 08:37:50;;;;;;;3.65;3.35;;;23.80;72.40;;;;;;5002897;28;20272;-84
2021/09/13 08:40:16;;;;;;;3.92;3.50;;;23.90;71.60;;;;;;5004566;28;20046;-84
2021/09/13 08:42:45;;;;;;;4.55;3.55;;;24.00;70.90;;;;;;5012443;28;20062;-84
2021/09/13 08:45:13;;;;;;;4.20;3.80;;;23.80;71.10;;;;;;5012724;28;20061;-84
2021/09/13 08:47:54;;;;;;;3.53;3.22;;;23.50;71.30;;;;;;5012180;28;20030;-83
2021/09/13 08:53:11;;;;;;;6.28;4.25;;;23.10;72.20;;;;;;5014269;28;20102;-85
2021/09/13 08:55:37;;;;;;;6.68;4.20;;;22.70;73.30;;;;;;5013307;28;20078;-86
2021/09/13 08:58:03;;;;;;;6.00;4.07;;;22.50;75.00;;;;;;5014474;28;20027;-85
2021/09/13 09:00:30;;;;;;;6.30;4.10;;;22.30;76.60;;;;;;5015014;28;20022;-84
2021/09/13 09:02:57;;;;;;;3.92;3.53;;;22.10;77.30;;;;;;5013498;28;20061;-87
2021/09/13 09:05:23;;;;;;;3.92;3.63;;;22.10;77.80;;;;;;5009124;28;20030;-87
2021/09/13 09:07:55;;;;;;;4.78;4.15;;;22.40;78.00;;;;;;5008386;28;20051;-86
2021/09/13 09:10:23;;;;;;;4.82;4.43;;;22.80;76.10;;;;;;4995732;28;20034;-83
2021/09/13 09:13:00;;;;;;;4.18;3.60;;;23.00;74.10;;;;;;5002771;28;20025;-84
2021/09/13 09:15:27;;;;;;;4.00;3.58;;;23.10;74.50;;;;;;5002088;28;20041;-84
2021/09/13 09:17:55;;;;;;;3.65;3.35;;;23.10;74.60;;;;;;4995571;28;20039;-83
2021/09/13 09:20:21;;;;;;;4.88;3.25;;;23.40;74.70;;;;;;5000066;28;20542;-84
2021/09/13 09:22:58;;;;;;;6.05;3.80;;;23.90;72.50;;;;;;5000366;28;20042;-84
2021/09/13 09:25:29;;;;;;;4.13;3.72;;;24.20;70.80;;;;;;4991969;28;20015;-86
2021/09/13 09:28:05;;;;;;;6.18;4.25;;;24.40;70.20;;;;;;4997996;28;20098;-85
2021/09/13 09:30:43;;;;;;;6.03;4.40;;;24.80;68.00;;;;;;4997946;28;20089;-85
2021/09/13 09:33:10;;;;;;;4.15;3.42;;;25.20;67.40;;;;;;4978372;28;20456;-86
2021/09/13 09:35:48;;;;;;;3.58;3.28;;;25.10;66.50;;;;;;4988927;28;20035;-85
2021/09/13 09:38:32;;;;;;;3.65;3.35;;;25.40;66.60;;;;;;4991503;28;20109;-86
2021/09/13 09:41:03;;;;;;;5.22;3.70;;;25.70;64.90;;;;;;4997763;28;20130;-86
2021/09/13 09:43:31;;;;;;;6.15;4.22;;;25.60;64.70;;;;;;4995982;28;20034;-82
2021/09/13 09:45:57;;;;;;;3.28;3.00;;;25.20;64.70;;;;;;4996802;28;20478;-85
2021/09/13 09:48:29;;;;;;;3.83;3.53;;;24.90;66.70;;;;;;4992657;28;20159;-85
2021/09/13 09:50:55;;;;;;;5.75;3.63;;;24.80;67.10;;;;;;4977368;28;20403;-87
2021/09/13 09:53:21;;;;;;;6.00;3.90;;;25.10;65.90;;;;;;4997179;28;20113;-84
2021/09/13 09:55:53;;;;;;;4.00;3.60;;;24.90;66.00;;;;;;4988799;28;20025;-84
2021/09/13 09:58:19;;;;;;;;;;;24.40;67.20;;;;;;4984396;28;20027;-85
2021/09/13 10:00:46;;;;;;;3.75;3.20;;;23.90;69.40;;;;;;4990916;28;20355;-86
2021/09/13 10:03:31;;;;;;;5.18;3.47;;;23.50;70.80;;;;;;4995555;28;20376;-85
2021/09/13 10:05:57;;;;;;;4.68;3.53;;;23.30;72.10;;;;;;4995400;28;20030;-86
2021/09/13 10:08:23;;;;;;;2.97;2.78;;;23.70;72.40;;;;;;4991349;28;20035;-87
2021/09/13 10:10:49;;;;;;;3.20;2.90;;;24.50;70.80;;;;;;4993499;28;20022;-85
2021/09/13 10:13:15;;;;;;;4.55;3.70;;;24.90;68.20;;;;;;4999067;28;20022;-85
2021/09/13 10:15:41;;;;;;;3.47;3.15;;;25.00;66.00;;;;;;5011551;28;20387;-85
2021/09/13 10:18:07;;;;;;;4.45;3.65;;;24.80;67.20;;;;;;5013449;28;20146;-84
2021/09/13 10:20:34;;;;;;;3.50;3.20;;;24.90;67.60;;;;;;5002387;28;20022;-84
2021/09/13 10:23:00;;;;;;;4.82;4.30;;;25.10;67.30;;;;;;4982355;28;20057;-84
2021/09/13 10:25:31;;;;;;;4.35;3.95;;;25.40;66.20;;;;;;4978270;28;20038;-86
2021/09/13 10:28:06;;;;;;;8.57;4.20;;;25.20;65.80;;;;;;4986021;28;20027;-85
2021/09/13 10:30:47;;;;;;;4.82;3.85;;;24.90;66.40;;;;;;4977750;28;20027;-86
2021/09/13 10:33:13;;;;;;;7.78;3.70;;;24.40;68.10;;;;;;4984451;28;20061;-86
2021/09/13 10:35:55;;;;;;;5.82;4.05;;;23.90;69.80;;;;;;4997821;28;20026;-85
2021/09/13 10:38:42;;;;;;;5.43;4.93;;;23.50;71.50;;;;;;4996224;28;20061;-85
2021/09/13 10:41:08;;;;;;;5.78;4.85;;;23.70;71.40;;;;;;4997654;28;20022;-86
2021/09/13 10:43:34;;;;;;;5.43;4.50;;;23.90;70.90;;;;;;5003053;28;20030;-85
2021/09/13 10:45:59;;;;;;;6.38;3.65;;;24.20;70.30;;;;;;5001379;28;20030;-86
2021/09/13 10:48:25;;;;;;;6.30;3.78;;;24.60;69.50;;;;;;4997709;28;20026;-85
2021/09/13 10:50:53;;;;;;;3.28;2.97;;;25.20;68.10;;;;;;4983618;28;20022;-85
2021/09/13 10:53:22;;;;;;;4.15;3.53;;;25.60;66.60;;;;;;4982548;28;20062;-85
2021/09/13 10:56:12;;;;;;;5.60;4.10;;;26.00;63.90;;;;;;4999406;28;20026;-84
2021/09/13 10:58:43;;;;;;;4.07;3.60;;;26.10;63.00;;;;;;5000631;28;20109;-86
2021/09/13 11:01:30;;;;;;;5.40;4.03;;;25.80;63.10;;;;;;5000469;28;20022;-85
2021/09/13 11:04:06;;;;;;;3.47;3.20;;;25.10;64.10;;;;;;5001588;28;20557;-85
2021/09/13 11:06:44;;;;;;;4.93;3.20;;;24.40;67.10;;;;;;5001837;28;20375;-84
2021/09/13 11:09:16;;;;;;;5.80;3.70;;;23.90;68.90;;;;;;4989629;28;20029;-84
2021/09/13 11:11:45;;;;;;;3.85;3.45;;;24.10;69.20;;;;;;4980201;28;20034;-84
2021/09/13 11:14:14;;;;;;;3.70;3.40;;;24.70;68.30;;;;;;4983634;28;20027;-84
2021/09/13 11:19:10;;;;;;;4.40;3.33;;;25.30;65.10;;;;;;5022054;28;20071;-81
2021/09/13 11:21:42;;;;;;;4.97;3.53;;;25.30;64.70;;;;;;5010522;28;20042;-83
2021/09/13 11:24:16;;;;;;;7.03;4.32;;;25.40;64.80;;;;;;5009875;28;20086;-82
2021/09/13 11:26:57;;;;;;;5.95;4.20;;;25.30;64.60;;;;;;5025485;28;20049;-81
2021/09/13 11:29:26;;;;;;;3.40;2.90;;;25.10;64.80;;;;;;5031335;28;20117;-83
2021/09/13 11:31:58;;;;;;;4.38;3.40;;;25.00;65.50;;;;;;5028361;28;20026;-82
2021/09/13 11:34:31;;;;;;;4.25;3.80;;;24.70;66.50;;;;;;5009386;28;20073;-82
2021/09/13 11:37:06;;;;;;;5.32;3.67;;;24.60;66.90;;;;;;5029179;28;20061;-81
2021/09/13 11:39:45;;;;;;;5.05;3.50;;;24.60;67.10;;;;;;5010263;28;20042;-82
2021/09/13 11:42:25;;;;;;;5.47;4.22;;;24.80;66.30;;;;;;5026074;28;20026;-78
2021/09/13 11:44:54;;;;;;;3.53;3.28;;;25.20;65.30;;;;;;5031826;28;20094;-80
2021/09/13 11:47:21;;;;;;;3.83;3.40;;;25.40;64.60;;;;;;5027548;28;20447;-81
2021/09/13 11:49:53;;;;;;;3.50;3.20;;;25.60;64.90;;;;;;5014573;28;20038;-81
2021/09/13 11:52:29;;;;;;;5.95;3.38;;;25.90;64.10;;;;;;4986766;28;20521;-79
2021/09/13 11:55:09;;;;;;;4.65;3.40;;;26.30;63.60;;;;;;4990909;28;20092;-80
2021/09/13 11:57:35;;;;;;;3.65;3.35;;;26.70;62.20;;;;;;5009439;28;20030;-80
2021/09/13 12:00:14;;;;;;;3.63;3.33;;;26.70;61.40;;;;;;5026073;28;20052;-80
2021/09/13 12:02:45;;;;;;;3.70;3.40;;;26.30;61.40;;;;;;5026859;28;20056;-81
2021/09/13 12:05:21;;;;;;;3.38;3.08;;;26.00;61.90;;;;;;5011785;28;20026;-81
2021/09/13 12:07:49;;;;;;;4.40;3.45;;;25.90;62.00;;;;;;5028144;28;20022;-80
2021/09/13 12:10:19;;;;;;;4.05;3.60;;;25.50;63.40;;;;;;4999812;28;20031;-81
2021/09/13 12:12:49;;;;;;;3.65;3.35;;;25.40;64.00;;;;;;5008303;28;20023;-82
2021/09/13 12:15:17;;;;;;;3.40;3.13;;;25.50;64.20;;;;;;5018114;28;20045;-82
2021/09/13 12:17:48;;;;;;;3.72;3.42;;;25.80;63.40;;;;;;5013674;28;20098;-83
2021/09/13 12:20:19;;;;;;;4.68;3.47;;;26.20;62.30;;;;;;5001322;28;20022;-80
2021/09/13 12:22:47;;;;;;;3.72;3.42;;;26.40;61.00;;;;;;5009794;28;20184;-79
2021/09/13 12:25:18;;;;;;;4.68;3.90;;;26.60;60.90;;;;;;5009803;28;20061;-81
2021/09/13 12:28:14;;;;;;;4.28;3.88;;;26.10;61.20;;;;;;5026668;28;20085;-80
2021/09/13 12:30:42;;;;;;;3.97;3.45;;;25.60;62.80;;;;;;5024000;28;20034;-80
2021/09/13 12:33:11;;;;;;;3.50;3.20;;;25.10;64.00;;;;;;5010519;28;20080;-79
2021/09/13 12:35:40;;;;;;;3.22;3.00;;;24.80;64.70;;;;;;5010874;28;20069;-80
2021/09/13 12:38:15;;;;;;;3.00;2.80;;;24.80;65.40;;;;;;5012183;28;20125;-80
2021/09/13 12:40:47;;;;;;;4.38;2.88;;;25.10;65.30;;;;;;5011044;28;20022;-80
2021/09/13 12:43:17;;;;;;;3.63;3.38;;;25.30;63.90;;;;;;5028767;28;20034;-79
2021/09/13 12:45:42;;;;;;;3.58;3.28;;;25.00;64.30;;;;;;5010826;28;20053;-81
2021/09/13 12:48:08;;;;;;;4.55;3.67;;;24.80;65.10;;;;;;5027891;28;20026;-80
2021/09/13 12:50:40;;;;;;;3.15;2.95;;;24.60;65.50;;;;;;5014960;28;20027;-81
2021/09/13 12:53:18;;;;;;;3.20;3.00;;;24.40;66.00;;;;;;5008545;28;20056;-82
2021/09/13 12:55:44;;;;;;;3.45;3.15;;;24.70;66.70;;;;;;5011202;28;20026;-80
2021/09/13 12:58:23;;;;;;;3.92;3.63;;;25.30;64.70;;;;;;5010733;28;20022;-80
2021/09/13 13:00:49;;;;;;;3.88;3.58;;;25.70;63.10;;;;;;5025199;28;20148;-80
2021/09/13 13:03:15;;;;;;;7.10;3.45;;;26.00;62.20;;;;;;5020528;28;20029;-78
2021/09/13 13:05:53;;;;;;;4.30;3.90;;;26.10;61.80;;;;;;5018513;28;20022;-79
2021/09/13 13:08:22;;;;;;;3.65;3.38;;;26.20;60.90;;;;;;5013974;28;20038;-79
2021/09/13 13:10:48;;;;;;;3.25;3.05;;;26.10;61.10;;;;;;5002504;28;20026;-79
2021/09/13 13:13:13;;;;;;;3.85;3.55;;;25.80;61.50;;;;;;5001368;28;20508;-79
2021/09/13 13:15:40;;;;;;;4.05;3.55;;;25.50;62.00;;;;;;5001854;28;20049;-80
2021/09/13 13:18:20;;;;;;;3.67;3.38;;;25.20;62.80;;;;;;5001336;28;20030;-81
2021/09/13 13:20:46;;;;;;;4.57;3.17;;;24.90;63.50;;;;;;5000779;28;20030;-79
2021/09/13 13:23:13;;;;;;;3.17;2.97;;;24.80;64.40;;;;;;5002684;28;20394;-78
2021/09/13 13:25:47;;;;;;;3.60;3.40;;;24.80;64.10;;;;;;5007496;28;20026;-79
2021/09/13 13:28:15;;;;;;;3.17;2.97;;;24.50;64.00;;;;;;5001282;28;20057;-78
2021/09/13 13:30:41;;;;;;;3.30;3.10;;;24.40;65.00;;;;;;5000094;28;20034;-81
2021/09/13 13:33:07;;;;;;;3.88;3.17;;;24.40;66.00;;;;;;5017739;28;20030;-80
2021/09/13 13:35:39;;;;;;;3.10;2.90;;;24.60;66.70;;;;;;5000476;28;20056;-79
2021/09/13 13:38:05;;;;;;;3.80;3.20;;;25.20;64.80;;;;;;4996929;28;20033;-80
2021/09/13 13:40:32;;;;;;;3.63;3.28;;;25.90;64.00;;;;;;4994710;28;20064;-80
2021/09/13 13:42:59;;;;;;;3.25;3.05;;;26.40;61.20;;;;;;5016461;28;20018;-79
2021/09/13 13:45:25;;;;;;;5.55;3.30;;;26.70;59.70;;;;;;5009506;28;20022;-82
2021/09/13 13:47:53;;;;;;;3.20;3.00;;;26.40;59.00;;;;;;5011524;28;20041;-80
2021/09/13 13:50:20;;;;;;;3.60;3.28;;;25.90;59.80;;;;;;5008983;28;20026;-80
2021/09/13 13:52:47;;;;;;;3.45;3.15;;;25.40;60.80;;;;;;4993369;28;20018;-79
2021/09/13 13:55:19;;;;;;;3.28;3.08;;;25.20;62.20;;;;;;4995358;28;20026;-79
2021/09/13 13:57:45;;;;;;;3.33;3.03;;;25.40;63.10;;;;;;5001754;28;20018;-79
2021/09/13 14:00:13;;;;;;;2.90;2.70;;;26.00;62.00;;;;;;5018615;28;20372;-79
2021/09/13 14:02:40;;;;;;;3.15;2.95;;;26.40;60.60;;;;;;5000530;28;20319;-80
2021/09/13 14:05:06;;;;;;;4.05;3.33;;;26.60;59.70;;;;;;5000673;28;20109;-81
2021/09/13 14:07:32;;;;;;;2.67;2.58;;;26.70;59.20;;;;;;5022146;28;20026;-79
2021/09/13 14:09:59;;;;;;;3.65;3.30;;;26.70;59.00;;;;;;4991681;28;20109;-80
2021/09/13 14:12:25;;;;;;;3.15;2.95;;;26.50;58.90;;;;;;5019154;28;20129;-79
2021/09/13 14:14:51;;;;;;;3.92;2.90;;;26.20;59.80;;;;;;5017321;28;20053;-81
2021/09/13 14:17:17;;;;;;;3.53;3.22;;;26.00;60.80;;;;;;5026256;28;20045;-78
2021/09/13 14:19:44;;;;;;;4.25;3.85;;;26.20;61.20;;;;;;5020079;28;20037;-79
2021/09/13 14:22:10;;;;;;;3.28;2.97;;;26.60;59.70;;;;;;5024299;28;20030;-81
2021/09/13 14:24:36;;;;;;;3.47;3.10;;;26.30;59.30;;;;;;5027815;28;20029;-80
2021/09/13 14:27:02;;;;;;;2.90;2.70;;;25.90;60.00;;;;;;5012273;28;20030;-82
2021/09/13 14:29:28;;;;;;;3.10;2.90;;;25.50;60.50;;;;;;5029145;28;20046;-80
2021/09/13 14:31:54;;;;;;;3.40;3.20;;;25.20;61.90;;;;;;5029615;28;20080;-82
2021/09/13 14:34:20;;;;;;;3.42;3.22;;;25.00;63.00;;;;;;5024244;28;20022;-79
2021/09/13 14:36:47;;;;;;;3.38;2.95;;;25.00;63.80;;;;;;5021242;28;20113;-80
2021/09/13 14:39:13;;;;;;;3.17;2.97;;;25.00;63.80;;;;;;5003934;28;20151;-80
2021/09/13 14:41:39;;;;;;;3.70;3.40;;;25.00;64.00;;;;;;5022961;28;20032;-79
2021/09/13 14:44:05;;;;;;;3.30;2.95;;;25.00;64.00;;;;;;5004754;28;20105;-79
2021/09/13 14:46:31;;;;;;;4.40;2.47;;;25.60;62.50;;;;;;5004967;28;20076;-80
2021/09/13 14:48:57;;;;;;;3.05;2.85;;;26.10;61.10;;;;;;5024286;28;20030;-77
2021/09/13 14:51:23;;;;;;;3.65;3.45;;;26.50;60.10;;;;;;5024627;28;20034;-76
2021/09/13 14:53:49;;;;;;;3.75;2.72;;;26.50;59.70;;;;;;5025800;28;20033;-81
2021/09/13 14:56:15;;;;;;;6.00;3.20;;;26.20;59.90;;;;;;5024743;28;20025;-79
2021/09/13 14:58:44;;;;;;;3.33;3.10;;;25.60;60.80;;;;;;5029785;28;20037;-82
2021/09/13 15:01:09;;;;;;;3.42;3.13;;;25.10;62.40;;;;;;5034750;28;20025;-78
2021/09/13 15:03:35;;;;;;;4.82;3.25;;;24.80;63.60;;;;;;5033787;28;20029;-79
2021/09/13 15:06:01;;;;;;;4.22;2.95;;;24.60;64.20;;;;;;5035037;28;20026;-79
2021/09/13 15:08:29;;;;;;;3.38;3.08;;;24.40;64.50;;;;;;5013020;28;20026;-79
2021/09/13 15:10:55;;;;;;;5.22;3.17;;;24.80;63.80;;;;;;5020389;28;20052;-80
2021/09/13 15:13:21;;;;;;;3.75;2.90;;;25.20;61.40;;;;;;5020737;28;20601;-79
2021/09/13 15:15:47;;;;;;;5.00;3.35;;;25.40;61.50;;;;;;5020438;28;20049;-80
2021/09/13 15:18:12;;;;;;;5.50;3.20;;;25.60;60.60;;;;;;5021075;28;20191;-80
2021/09/13 15:20:45;;;;;;;5.40;3.10;;;25.70;60.20;;;;;;5002189;28;20052;-80
2021/09/13 15:23:16;;;;;;;3.10;2.90;;;25.70;59.90;;;;;;5001755;28;20022;-79